UAL1183 KLGA-KDEN
Flight info
| Callsign | UAL1183 |
|---|---|
| Flight time | 3h 40m |
| Altitude | 38000 |
| Route | NEWEL J60 DJB CPONE JOT J60 IOW/N0470F400 DSM OBH BRWRY LAWGR3 |
| Aircraft | B77W/H-SDE1E2E3FGHIJ2J3J4J5M1RWXY/LB1D1 |
Departure
| Time | 2026-05-04 12:57 |
|---|---|
| Airport | LaGuardia Airport (KLGA) |
Arrival
| Time | 2026-05-04 16:37 |
|---|---|
| Airport | Denver International Airport (KDEN) |
| Time | Latitude | Longitude | Altitude | Speed | Heading |
|---|---|---|---|---|---|
| 2026-05-04 12:25 | 40.77379 | -73.86788 | 22 ft | 0 kts | 232° |
| 2026-05-04 12:46 | 40.77386 | -73.86777 | 27 ft | 2 kts | 231° |
| 2026-05-04 12:46 | 40.77396 | -73.86759 | 26 ft | 2 kts | 233° |
| 2026-05-04 12:46 | 40.77406 | -73.86742 | 27 ft | 2 kts | 234° |
| 2026-05-04 12:46 | 40.77415 | -73.86724 | 26 ft | 2 kts | 236° |
| 2026-05-04 12:47 | 40.77425 | -73.86706 | 28 ft | 2 kts | 237° |
| 2026-05-04 12:47 | 40.77433 | -73.86688 | 25 ft | 2 kts | 240° |
| 2026-05-04 12:47 | 40.77441 | -73.86669 | 26 ft | 2 kts | 244° |
| 2026-05-04 12:47 | 40.77447 | -73.86649 | 28 ft | 2 kts | 252° |
| 2026-05-04 12:48 | 40.77451 | -73.86628 | 28 ft | 2 kts | 271° |
| 2026-05-04 12:48 | 40.77448 | -73.86608 | 27 ft | 2 kts | 303° |
| 2026-05-04 12:48 | 40.77446 | -73.86603 | 27 ft | 0 kts | 304° |
| 2026-05-04 12:50 | 40.77446 | -73.86604 | 27 ft | 0 kts | 304° |
| 2026-05-04 12:50 | 40.77449 | -73.86610 | 27 ft | 1 kts | 304° |
| 2026-05-04 12:51 | 40.77459 | -73.86629 | 27 ft | 6 kts | 302° |
| 2026-05-04 12:51 | 40.77495 | -73.86706 | 25 ft | 14 kts | 302° |
| 2026-05-04 12:51 | 40.77554 | -73.86804 | 26 ft | 10 kts | 321° |
| 2026-05-04 12:51 | 40.77603 | -73.86810 | 25 ft | 7 kts | 340° |
| 2026-05-04 12:52 | 40.77642 | -73.86859 | 25 ft | 8 kts | 307° |
| 2026-05-04 12:52 | 40.77673 | -73.86920 | 26 ft | 8 kts | 303° |
| 2026-05-04 12:52 | 40.77703 | -73.86983 | 25 ft | 8 kts | 302° |
| 2026-05-04 12:52 | 40.77733 | -73.87046 | 24 ft | 8 kts | 302° |
| 2026-05-04 12:53 | 40.77763 | -73.87109 | 25 ft | 8 kts | 302° |
| 2026-05-04 12:53 | 40.77801 | -73.87191 | 24 ft | 14 kts | 302° |
| 2026-05-04 12:53 | 40.77862 | -73.87319 | 26 ft | 16 kts | 301° |
| 2026-05-04 12:53 | 40.77913 | -73.87405 | 25 ft | 12 kts | 329° |
| 2026-05-04 12:54 | 40.77974 | -73.87389 | 26 ft | 11 kts | 30° |
| 2026-05-04 12:54 | 40.78074 | -73.87308 | 25 ft | 21 kts | 31° |
| 2026-05-04 12:54 | 40.78198 | -73.87208 | 24 ft | 17 kts | 31° |
| 2026-05-04 12:54 | 40.78292 | -73.87131 | 26 ft | 16 kts | 32° |
| 2026-05-04 12:55 | 40.78384 | -73.87051 | 25 ft | 16 kts | 33° |
| 2026-05-04 12:55 | 40.78476 | -73.87019 | 25 ft | 14 kts | 349° |
| 2026-05-04 12:55 | 40.78502 | -73.87102 | 29 ft | 6 kts | 223° |
| 2026-05-04 12:55 | 40.78493 | -73.87111 | 27 ft | 0 kts | 215° |
| 2026-05-04 12:56 | 40.78474 | -73.87127 | 29 ft | 23 kts | 213° |
| 2026-05-04 12:56 | 40.77957 | -73.87554 | 27 ft | 151 kts | 212° |
| 2026-05-04 12:56 | 40.77006 | -73.88329 | 237 ft | 155 kts | 212° |
| 2026-05-04 12:56 | 40.76151 | -73.89060 | 537 ft | 139 kts | 220° |
| 2026-05-04 12:57 | 40.75787 | -73.90159 | 719 ft | 149 kts | 279° |
| 2026-05-04 12:57 | 40.76187 | -73.91590 | 1122 ft | 182 kts | 284° |
| 2026-05-04 12:57 | 40.76613 | -73.93273 | 1718 ft | 204 kts | 282° |
| 2026-05-04 12:57 | 40.77043 | -73.95173 | 2437 ft | 228 kts | 281° |
| 2026-05-04 12:58 | 40.77469 | -73.97242 | 3456 ft | 238 kts | 280° |
| 2026-05-04 12:58 | 40.77871 | -73.99388 | 4651 ft | 243 kts | 279° |
| 2026-05-04 12:58 | 40.78247 | -74.01571 | 5849 ft | 244 kts | 279° |
| 2026-05-04 12:58 | 40.78598 | -74.03772 | 7074 ft | 246 kts | 278° |
| 2026-05-04 12:59 | 40.78934 | -74.06017 | 8158 ft | 252 kts | 278° |
| 2026-05-04 12:59 | 40.79260 | -74.08311 | 9277 ft | 256 kts | 278° |
| 2026-05-04 12:59 | 40.79579 | -74.10646 | 10357 ft | 262 kts | 278° |
| 2026-05-04 12:59 | 40.79903 | -74.13103 | 10971 ft | 285 kts | 278° |
| 2026-05-04 13:00 | 40.80253 | -74.15832 | 11230 ft | 318 kts | 278° |
| 2026-05-04 13:00 | 40.80626 | -74.18787 | 11987 ft | 332 kts | 278° |
| 2026-05-04 13:00 | 40.81006 | -74.21833 | 13035 ft | 340 kts | 278° |
| 2026-05-04 13:00 | 40.81384 | -74.24889 | 14120 ft | 344 kts | 278° |
| 2026-05-04 13:01 | 40.81768 | -74.28022 | 15227 ft | 347 kts | 278° |
| 2026-05-04 13:01 | 40.82153 | -74.31177 | 16368 ft | 349 kts | 278° |
| 2026-05-04 13:01 | 40.82537 | -74.34347 | 17488 ft | 352 kts | 279° |
| 2026-05-04 13:01 | 40.82925 | -74.37563 | 18544 ft | 356 kts | 279° |
| 2026-05-04 13:02 | 40.83315 | -74.40810 | 19442 ft | 361 kts | 279° |
| 2026-05-04 13:02 | 40.83709 | -74.44096 | 20294 ft | 366 kts | 279° |
| 2026-05-04 13:02 | 40.84109 | -74.47445 | 21148 ft | 372 kts | 279° |
| 2026-05-04 13:02 | 40.84514 | -74.50842 | 21999 ft | 377 kts | 279° |
| 2026-05-04 13:03 | 40.84924 | -74.54292 | 22864 ft | 382 kts | 279° |
| 2026-05-04 13:03 | 40.85338 | -74.57784 | 23693 ft | 387 kts | 279° |
| 2026-05-04 13:03 | 40.85756 | -74.61319 | 24374 ft | 392 kts | 279° |
| 2026-05-04 13:03 | 40.86177 | -74.64893 | 25078 ft | 396 kts | 279° |
| 2026-05-04 13:04 | 40.86598 | -74.68471 | 25759 ft | 400 kts | 279° |
| 2026-05-04 13:04 | 40.87026 | -74.72119 | 26428 ft | 404 kts | 279° |
| 2026-05-04 13:04 | 40.87456 | -74.75797 | 27090 ft | 408 kts | 279° |
| 2026-05-04 13:04 | 40.87891 | -74.79527 | 27737 ft | 412 kts | 279° |
| 2026-05-04 13:05 | 40.88327 | -74.83287 | 28373 ft | 416 kts | 279° |
| 2026-05-04 13:05 | 40.88768 | -74.87084 | 28968 ft | 420 kts | 279° |
| 2026-05-04 13:05 | 40.89211 | -74.90916 | 29558 ft | 424 kts | 279° |
| 2026-05-04 13:05 | 40.89658 | -74.94799 | 30098 ft | 428 kts | 279° |
| 2026-05-04 13:06 | 40.90107 | -74.98715 | 30555 ft | 432 kts | 279° |
| 2026-05-04 13:06 | 40.90558 | -75.02651 | 30994 ft | 435 kts | 279° |
| 2026-05-04 13:06 | 40.91005 | -75.06563 | 31396 ft | 438 kts | 279° |
| 2026-05-04 13:06 | 40.91452 | -75.10557 | 31860 ft | 438 kts | 278° |
| 2026-05-04 13:07 | 40.91615 | -75.14578 | 32410 ft | 438 kts | 270° |
| 2026-05-04 13:07 | 40.91391 | -75.18594 | 32989 ft | 438 kts | 265° |
| 2026-05-04 13:07 | 40.90906 | -75.22564 | 33542 ft | 438 kts | 259° |
| 2026-05-04 13:07 | 40.90069 | -75.26452 | 34034 ft | 439 kts | 255° |
| 2026-05-04 13:08 | 40.89115 | -75.30298 | 34447 ft | 439 kts | 254° |
| 2026-05-04 13:08 | 40.88172 | -75.34133 | 34863 ft | 439 kts | 255° |
| 2026-05-04 13:08 | 40.87250 | -75.37975 | 35256 ft | 439 kts | 255° |
| 2026-05-04 13:08 | 40.86349 | -75.41777 | 35628 ft | 438 kts | 255° |
| 2026-05-04 13:09 | 40.85441 | -75.45620 | 36014 ft | 438 kts | 255° |
| 2026-05-04 13:09 | 40.84532 | -75.49466 | 36352 ft | 439 kts | 255° |
| 2026-05-04 13:09 | 40.83622 | -75.53310 | 36714 ft | 438 kts | 255° |
| 2026-05-04 13:09 | 40.82711 | -75.57152 | 37072 ft | 438 kts | 255° |
| 2026-05-04 13:10 | 40.81796 | -75.61001 | 37417 ft | 438 kts | 255° |
| 2026-05-04 13:10 | 40.80882 | -75.64838 | 37768 ft | 438 kts | 255° |
| 2026-05-04 13:10 | 40.79965 | -75.68685 | 37941 ft | 442 kts | 255° |
| 2026-05-04 13:11 | 40.78117 | -75.76413 | 38008 ft | 444 kts | 254° |
| 2026-05-04 13:11 | 40.76265 | -75.84121 | 38001 ft | 437 kts | 255° |
| 2026-05-04 13:12 | 40.74430 | -75.91740 | 38003 ft | 435 kts | 255° |
| 2026-05-04 13:12 | 40.72596 | -75.99338 | 38011 ft | 435 kts | 255° |
| 2026-05-04 13:13 | 40.70755 | -76.06940 | 37997 ft | 435 kts | 255° |
| 2026-05-04 13:13 | 40.68918 | -76.14503 | 38010 ft | 436 kts | 255° |
| 2026-05-04 13:14 | 40.67476 | -76.22238 | 38014 ft | 433 kts | 266° |
| 2026-05-04 13:14 | 40.67479 | -76.30151 | 38006 ft | 432 kts | 278° |
| 2026-05-04 13:15 | 40.68596 | -76.37920 | 38006 ft | 432 kts | 282° |
| 2026-05-04 13:15 | 40.69815 | -76.45686 | 38009 ft | 433 kts | 281° |
| 2026-05-04 13:16 | 40.71007 | -76.53493 | 38010 ft | 434 kts | 281° |
| 2026-05-04 13:16 | 40.72168 | -76.61287 | 38002 ft | 434 kts | 281° |
| 2026-05-04 13:17 | 40.73312 | -76.69053 | 38003 ft | 434 kts | 281° |
| 2026-05-04 13:17 | 40.74456 | -76.76861 | 38005 ft | 433 kts | 281° |
| 2026-05-04 13:18 | 40.75596 | -76.84672 | 37993 ft | 433 kts | 281° |
| 2026-05-04 13:18 | 40.76730 | -76.92481 | 37991 ft | 433 kts | 281° |
| 2026-05-04 13:19 | 40.77857 | -77.00284 | 37990 ft | 432 kts | 281° |
| 2026-05-04 13:19 | 40.78971 | -77.08033 | 37985 ft | 432 kts | 281° |
| 2026-05-04 13:20 | 40.80087 | -77.15832 | 37984 ft | 432 kts | 281° |
| 2026-05-04 13:20 | 40.81197 | -77.23631 | 37974 ft | 432 kts | 281° |
| 2026-05-04 13:21 | 40.82300 | -77.31416 | 37979 ft | 431 kts | 281° |
| 2026-05-04 13:21 | 40.83390 | -77.39147 | 37978 ft | 431 kts | 281° |
| 2026-05-04 13:22 | 40.84479 | -77.46938 | 37980 ft | 431 kts | 281° |
| 2026-05-04 13:22 | 40.85551 | -77.54733 | 37971 ft | 431 kts | 281° |
| 2026-05-04 13:23 | 40.86617 | -77.62521 | 37986 ft | 431 kts | 281° |
| 2026-05-04 13:23 | 40.87680 | -77.70310 | 37977 ft | 430 kts | 281° |
| 2026-05-04 13:24 | 40.88737 | -77.78081 | 37964 ft | 429 kts | 281° |
| 2026-05-04 13:24 | 40.89782 | -77.85792 | 37955 ft | 429 kts | 281° |
| 2026-05-04 13:25 | 40.91351 | -77.97439 | 37957 ft | 428 kts | 281° |
| 2026-05-04 13:25 | 40.92358 | -78.05189 | 37964 ft | 428 kts | 280° |
| 2026-05-04 13:26 | 40.93158 | -78.11639 | 37961 ft | 427 kts | 280° |
| 2026-05-04 13:26 | 40.94117 | -78.19398 | 37953 ft | 427 kts | 280° |
| 2026-05-04 13:27 | 40.95080 | -78.27181 | 37953 ft | 427 kts | 280° |
| 2026-05-04 13:27 | 40.96031 | -78.34886 | 37953 ft | 427 kts | 280° |
| 2026-05-04 13:28 | 40.96984 | -78.42658 | 37961 ft | 428 kts | 280° |
| 2026-05-04 13:28 | 40.97923 | -78.50437 | 37955 ft | 428 kts | 280° |
| 2026-05-04 13:29 | 40.98852 | -78.58221 | 37949 ft | 428 kts | 280° |
| 2026-05-04 13:29 | 40.99776 | -78.66008 | 37952 ft | 428 kts | 280° |
| 2026-05-04 13:30 | 41.00697 | -78.73798 | 37948 ft | 428 kts | 280° |
| 2026-05-04 13:30 | 41.01606 | -78.81538 | 37925 ft | 428 kts | 280° |
| 2026-05-04 13:31 | 41.02515 | -78.89321 | 37933 ft | 428 kts | 280° |
| 2026-05-04 13:31 | 41.03418 | -78.97098 | 37929 ft | 428 kts | 279° |
| 2026-05-04 13:32 | 41.04318 | -79.04894 | 37920 ft | 428 kts | 279° |
| 2026-05-04 13:32 | 41.05211 | -79.12690 | 37918 ft | 427 kts | 279° |
| 2026-05-04 13:33 | 41.06098 | -79.20474 | 37924 ft | 427 kts | 279° |
| 2026-05-04 13:33 | 41.06980 | -79.28258 | 37920 ft | 427 kts | 279° |
| 2026-05-04 13:34 | 41.07857 | -79.36042 | 37916 ft | 427 kts | 279° |
| 2026-05-04 13:34 | 41.08722 | -79.43774 | 37919 ft | 427 kts | 279° |
| 2026-05-04 13:35 | 41.10018 | -79.55458 | 37915 ft | 427 kts | 279° |
| 2026-05-04 13:36 | 41.10876 | -79.63243 | 37918 ft | 427 kts | 279° |
| 2026-05-04 13:36 | 41.11729 | -79.71039 | 37914 ft | 427 kts | 279° |
| 2026-05-04 13:37 | 41.12576 | -79.78828 | 37914 ft | 427 kts | 279° |
| 2026-05-04 13:37 | 41.13417 | -79.86617 | 37915 ft | 427 kts | 279° |
| 2026-05-04 13:38 | 41.14249 | -79.94365 | 37913 ft | 427 kts | 279° |
| 2026-05-04 13:38 | 41.15081 | -80.02166 | 37922 ft | 426 kts | 279° |
| 2026-05-04 13:39 | 41.15907 | -80.09961 | 37924 ft | 427 kts | 279° |
| 2026-05-04 13:39 | 41.16727 | -80.17757 | 37923 ft | 426 kts | 279° |
| 2026-05-04 13:40 | 41.17540 | -80.25550 | 37924 ft | 426 kts | 279° |
| 2026-05-04 13:40 | 41.18350 | -80.33348 | 37926 ft | 426 kts | 279° |
| 2026-05-04 13:41 | 41.19149 | -80.41092 | 37928 ft | 426 kts | 279° |
| 2026-05-04 13:41 | 41.19949 | -80.48877 | 37919 ft | 425 kts | 279° |
| 2026-05-04 13:42 | 41.21141 | -80.60555 | 37919 ft | 425 kts | 279° |
| 2026-05-04 13:42 | 41.21929 | -80.68328 | 37900 ft | 425 kts | 279° |
| 2026-05-04 13:43 | 41.22711 | -80.76110 | 37907 ft | 425 kts | 279° |
| 2026-05-04 13:43 | 41.23488 | -80.83887 | 37903 ft | 425 kts | 279° |
| 2026-05-04 13:44 | 41.24256 | -80.91632 | 37872 ft | 425 kts | 279° |
| 2026-05-04 13:44 | 41.25021 | -80.99406 | 37880 ft | 424 kts | 279° |
| 2026-05-04 13:45 | 41.25783 | -81.07186 | 37882 ft | 424 kts | 279° |
| 2026-05-04 13:45 | 41.26537 | -81.14957 | 37889 ft | 424 kts | 279° |
| 2026-05-04 13:46 | 41.27288 | -81.22746 | 37890 ft | 424 kts | 279° |
| 2026-05-04 13:46 | 41.28031 | -81.30513 | 37879 ft | 424 kts | 279° |
| 2026-05-04 13:47 | 41.28770 | -81.38296 | 37884 ft | 423 kts | 279° |
| 2026-05-04 13:47 | 41.29498 | -81.46012 | 37874 ft | 423 kts | 279° |
| 2026-05-04 13:48 | 41.30226 | -81.53772 | 37861 ft | 422 kts | 279° |
| 2026-05-04 13:48 | 41.30944 | -81.61532 | 37844 ft | 422 kts | 279° |
| 2026-05-04 13:49 | 41.31647 | -81.69277 | 37854 ft | 421 kts | 279° |
| 2026-05-04 13:49 | 41.32340 | -81.76968 | 37854 ft | 421 kts | 279° |
| 2026-05-04 13:50 | 41.33032 | -81.84694 | 37854 ft | 420 kts | 279° |
| 2026-05-04 13:50 | 41.33718 | -81.92416 | 37850 ft | 420 kts | 279° |
| 2026-05-04 13:51 | 41.34400 | -82.00144 | 37853 ft | 420 kts | 279° |
| 2026-05-04 13:51 | 41.35076 | -82.07862 | 37861 ft | 420 kts | 279° |
| 2026-05-04 13:52 | 41.36046 | -82.19404 | 37862 ft | 420 kts | 278° |
| 2026-05-04 13:53 | 41.36506 | -82.27167 | 37862 ft | 421 kts | 277° |
| 2026-05-04 13:53 | 41.36930 | -82.34942 | 37858 ft | 421 kts | 277° |
| 2026-05-04 13:54 | 41.37585 | -82.46598 | 37846 ft | 421 kts | 277° |
| 2026-05-04 13:55 | 41.38246 | -82.58253 | 37830 ft | 420 kts | 277° |
| 2026-05-04 13:55 | 41.38898 | -82.69903 | 37829 ft | 420 kts | 277° |
| 2026-05-04 13:56 | 41.39325 | -82.77658 | 37825 ft | 420 kts | 277° |
| 2026-05-04 13:57 | 41.39955 | -82.89291 | 37826 ft | 419 kts | 276° |
| 2026-05-04 13:58 | 41.40775 | -83.04769 | 37820 ft | 419 kts | 276° |
| 2026-05-04 13:58 | 41.41378 | -83.16396 | 37805 ft | 419 kts | 276° |
| 2026-05-04 13:59 | 41.41772 | -83.24132 | 37822 ft | 419 kts | 276° |
| 2026-05-04 14:00 | 41.42353 | -83.35725 | 37823 ft | 419 kts | 276° |
| 2026-05-04 14:00 | 41.42924 | -83.47363 | 37824 ft | 420 kts | 276° |
| 2026-05-04 14:01 | 41.43299 | -83.55133 | 37808 ft | 420 kts | 276° |
| 2026-05-04 14:02 | 41.43852 | -83.66794 | 37808 ft | 420 kts | 276° |
| 2026-05-04 14:02 | 41.44215 | -83.74592 | 37810 ft | 421 kts | 275° |
| 2026-05-04 14:03 | 41.44572 | -83.82378 | 37801 ft | 421 kts | 275° |
| 2026-05-04 14:03 | 41.44922 | -83.90128 | 37804 ft | 421 kts | 275° |
| 2026-05-04 14:04 | 41.45441 | -84.01828 | 37805 ft | 421 kts | 275° |
| 2026-05-04 14:04 | 41.45780 | -84.09622 | 37808 ft | 422 kts | 275° |
| 2026-05-04 14:05 | 41.46281 | -84.21361 | 37809 ft | 422 kts | 275° |
| 2026-05-04 14:06 | 41.46606 | -84.29131 | 37800 ft | 422 kts | 275° |
| 2026-05-04 14:06 | 41.46927 | -84.36947 | 37811 ft | 422 kts | 275° |
| 2026-05-04 14:07 | 41.47243 | -84.44774 | 37823 ft | 422 kts | 275° |
| 2026-05-04 14:07 | 41.47555 | -84.52603 | 37806 ft | 422 kts | 275° |
| 2026-05-04 14:08 | 41.47858 | -84.60371 | 37815 ft | 422 kts | 275° |
| 2026-05-04 14:08 | 41.48159 | -84.68192 | 37800 ft | 422 kts | 275° |
| 2026-05-04 14:09 | 41.48599 | -84.79920 | 37794 ft | 422 kts | 274° |
| 2026-05-04 14:10 | 41.49027 | -84.91645 | 37785 ft | 422 kts | 274° |
| 2026-05-04 14:10 | 41.49306 | -84.99467 | 37780 ft | 422 kts | 274° |
| 2026-05-04 14:11 | 41.49580 | -85.07287 | 37772 ft | 421 kts | 274° |
| 2026-05-04 14:11 | 41.49979 | -85.18965 | 37792 ft | 421 kts | 274° |
| 2026-05-04 14:12 | 41.50239 | -85.26783 | 37794 ft | 421 kts | 274° |
| 2026-05-04 14:13 | 41.50619 | -85.38501 | 37783 ft | 421 kts | 274° |
| 2026-05-04 14:13 | 41.50866 | -85.46315 | 37774 ft | 421 kts | 274° |
| 2026-05-04 14:14 | 41.51106 | -85.54077 | 37779 ft | 421 kts | 274° |
| 2026-05-04 14:14 | 41.51458 | -85.65776 | 37775 ft | 420 kts | 274° |
| 2026-05-04 14:15 | 41.51872 | -85.80049 | 37774 ft | 420 kts | 274° |
| 2026-05-04 14:16 | 41.52197 | -85.91745 | 37772 ft | 420 kts | 274° |
| 2026-05-04 14:17 | 41.52512 | -86.03449 | 37774 ft | 420 kts | 274° |
| 2026-05-04 14:18 | 41.52736 | -86.15099 | 37768 ft | 420 kts | 273° |
| 2026-05-04 14:19 | 41.52994 | -86.30677 | 37779 ft | 420 kts | 273° |
| 2026-05-04 14:19 | 41.53121 | -86.38475 | 37778 ft | 420 kts | 273° |
| 2026-05-04 14:20 | 41.53243 | -86.46268 | 37777 ft | 420 kts | 273° |
| 2026-05-04 14:20 | 41.53360 | -86.54069 | 37770 ft | 420 kts | 273° |
| 2026-05-04 14:21 | 41.53525 | -86.65711 | 37766 ft | 420 kts | 272° |
| 2026-05-04 14:21 | 41.53629 | -86.73507 | 37769 ft | 420 kts | 272° |
| 2026-05-04 14:22 | 41.53728 | -86.81306 | 37770 ft | 420 kts | 272° |
| 2026-05-04 14:22 | 41.53821 | -86.89117 | 37766 ft | 420 kts | 272° |
| 2026-05-04 14:23 | 41.53951 | -87.00779 | 37770 ft | 420 kts | 272° |
| 2026-05-04 14:24 | 41.54031 | -87.08579 | 37771 ft | 420 kts | 272° |
| 2026-05-04 14:24 | 41.54106 | -87.16363 | 37758 ft | 420 kts | 272° |
| 2026-05-04 14:25 | 41.54175 | -87.24154 | 37748 ft | 420 kts | 272° |
| 2026-05-04 14:25 | 41.54270 | -87.35812 | 37741 ft | 419 kts | 272° |
| 2026-05-04 14:26 | 41.54326 | -87.43606 | 37751 ft | 419 kts | 272° |
| 2026-05-04 14:26 | 41.54377 | -87.51402 | 37750 ft | 420 kts | 272° |
| 2026-05-04 14:27 | 41.54423 | -87.59192 | 37750 ft | 420 kts | 272° |
| 2026-05-04 14:27 | 41.54464 | -87.66993 | 37749 ft | 420 kts | 272° |
| 2026-05-04 14:28 | 41.54500 | -87.74763 | 37741 ft | 420 kts | 272° |
| 2026-05-04 14:28 | 41.54530 | -87.82567 | 37741 ft | 420 kts | 272° |
| 2026-05-04 14:29 | 41.54574 | -87.98149 | 37754 ft | 420 kts | 272° |
| 2026-05-04 14:30 | 41.54589 | -88.05963 | 37733 ft | 421 kts | 272° |
| 2026-05-04 14:31 | 41.54601 | -88.17640 | 37743 ft | 421 kts | 272° |
| 2026-05-04 14:32 | 41.54602 | -88.33325 | 37741 ft | 423 kts | 272° |
| 2026-05-04 14:32 | 41.54641 | -88.41188 | 37740 ft | 423 kts | 272° |
| 2026-05-04 14:33 | 41.54691 | -88.49048 | 37716 ft | 424 kts | 272° |
| 2026-05-04 14:33 | 41.54730 | -88.56861 | 37738 ft | 424 kts | 272° |
| 2026-05-04 14:34 | 41.54762 | -88.64735 | 37726 ft | 424 kts | 272° |
| 2026-05-04 14:34 | 41.54787 | -88.72616 | 37726 ft | 424 kts | 272° |
| 2026-05-04 14:35 | 41.54806 | -88.80504 | 37730 ft | 424 kts | 272° |
| 2026-05-04 14:35 | 41.54821 | -88.88383 | 37730 ft | 424 kts | 272° |
| 2026-05-04 14:36 | 41.54829 | -88.96257 | 37728 ft | 424 kts | 272° |
| 2026-05-04 14:36 | 41.54833 | -89.04116 | 37716 ft | 424 kts | 272° |
| 2026-05-04 14:37 | 41.54832 | -89.11977 | 37725 ft | 423 kts | 271° |
| 2026-05-04 14:37 | 41.54825 | -89.19783 | 37726 ft | 423 kts | 271° |
| 2026-05-04 14:38 | 41.54814 | -89.27650 | 37713 ft | 423 kts | 271° |
| 2026-05-04 14:38 | 41.54795 | -89.35518 | 37723 ft | 423 kts | 271° |
| 2026-05-04 14:39 | 41.54768 | -89.43384 | 37724 ft | 424 kts | 271° |
| 2026-05-04 14:39 | 41.54735 | -89.51213 | 37723 ft | 424 kts | 271° |
| 2026-05-04 14:40 | 41.54676 | -89.63045 | 37721 ft | 425 kts | 271° |
| 2026-05-04 14:40 | 41.54631 | -89.70932 | 37718 ft | 425 kts | 271° |
| 2026-05-04 14:41 | 41.54580 | -89.78828 | 37719 ft | 425 kts | 271° |
| 2026-05-04 14:42 | 41.54462 | -89.94569 | 37788 ft | 428 kts | 271° |
| 2026-05-04 14:42 | 41.54430 | -89.98543 | 38122 ft | 428 kts | 271° |
| 2026-05-04 14:42 | 41.54395 | -90.02515 | 38486 ft | 426 kts | 271° |
| 2026-05-04 14:43 | 41.54359 | -90.06467 | 38793 ft | 425 kts | 271° |
| 2026-05-04 14:43 | 41.54322 | -90.10412 | 39064 ft | 425 kts | 271° |
| 2026-05-04 14:43 | 41.54284 | -90.14360 | 39303 ft | 426 kts | 271° |
| 2026-05-04 14:43 | 41.54244 | -90.18323 | 39534 ft | 426 kts | 271° |
| 2026-05-04 14:44 | 41.54161 | -90.26276 | 39663 ft | 430 kts | 271° |
| 2026-05-04 14:44 | 41.54070 | -90.34235 | 39693 ft | 427 kts | 271° |
| 2026-05-04 14:45 | 41.53975 | -90.42148 | 39694 ft | 425 kts | 271° |
| 2026-05-04 14:45 | 41.53876 | -90.50012 | 39703 ft | 423 kts | 271° |
| 2026-05-04 14:46 | 41.53773 | -90.57835 | 39702 ft | 424 kts | 271° |
| 2026-05-04 14:46 | 41.53663 | -90.65701 | 39702 ft | 424 kts | 270° |
| 2026-05-04 14:47 | 41.53548 | -90.73578 | 39703 ft | 425 kts | 270° |
| 2026-05-04 14:47 | 41.53427 | -90.81474 | 39696 ft | 426 kts | 270° |
| 2026-05-04 14:48 | 41.53301 | -90.89349 | 39700 ft | 427 kts | 270° |
| 2026-05-04 14:48 | 41.53168 | -90.97279 | 39698 ft | 428 kts | 270° |
| 2026-05-04 14:49 | 41.53030 | -91.05223 | 39699 ft | 428 kts | 270° |
| 2026-05-04 14:49 | 41.52886 | -91.13180 | 39701 ft | 429 kts | 270° |
| 2026-05-04 14:50 | 41.52737 | -91.21129 | 39704 ft | 429 kts | 270° |
| 2026-05-04 14:50 | 41.52582 | -91.29091 | 39707 ft | 429 kts | 270° |
| 2026-05-04 14:51 | 41.52421 | -91.37041 | 39709 ft | 428 kts | 270° |
| 2026-05-04 14:51 | 41.52256 | -91.44993 | 39711 ft | 428 kts | 270° |
| 2026-05-04 14:52 | 41.52086 | -91.52932 | 39697 ft | 428 kts | 270° |
| 2026-05-04 14:52 | 41.51911 | -91.60810 | 39702 ft | 427 kts | 270° |
| 2026-05-04 14:53 | 41.51687 | -91.68739 | 39712 ft | 427 kts | 269° |
| 2026-05-04 14:53 | 41.51422 | -91.76690 | 39709 ft | 428 kts | 269° |
| 2026-05-04 14:54 | 41.51156 | -91.84611 | 39703 ft | 428 kts | 269° |
| 2026-05-04 14:54 | 41.50890 | -91.92499 | 39681 ft | 428 kts | 269° |
| 2026-05-04 14:55 | 41.50621 | -92.00431 | 39673 ft | 428 kts | 269° |
| 2026-05-04 14:55 | 41.50346 | -92.08365 | 39682 ft | 428 kts | 269° |
| 2026-05-04 14:56 | 41.50065 | -92.16305 | 39670 ft | 429 kts | 269° |
| 2026-05-04 14:56 | 41.49779 | -92.24249 | 39675 ft | 429 kts | 269° |
| 2026-05-04 14:57 | 41.49487 | -92.32202 | 39664 ft | 429 kts | 269° |
| 2026-05-04 14:57 | 41.49189 | -92.40144 | 39672 ft | 429 kts | 269° |
| 2026-05-04 14:58 | 41.48887 | -92.48084 | 39680 ft | 429 kts | 269° |
| 2026-05-04 14:58 | 41.48631 | -92.54687 | 39686 ft | 429 kts | 269° |
| 2026-05-04 14:59 | 41.48266 | -92.63923 | 39674 ft | 429 kts | 269° |
| 2026-05-04 15:00 | 41.47786 | -92.75840 | 39676 ft | 428 kts | 269° |
| 2026-05-04 15:00 | 41.47458 | -92.83776 | 39684 ft | 429 kts | 269° |
| 2026-05-04 15:01 | 41.46957 | -92.95686 | 39675 ft | 428 kts | 269° |
| 2026-05-04 15:01 | 41.46616 | -93.03619 | 39682 ft | 428 kts | 269° |
| 2026-05-04 15:02 | 41.46272 | -93.11495 | 39684 ft | 428 kts | 269° |
| 2026-05-04 15:02 | 41.45920 | -93.19431 | 39673 ft | 428 kts | 268° |
| 2026-05-04 15:03 | 41.45564 | -93.27347 | 39674 ft | 428 kts | 268° |
| 2026-05-04 15:03 | 41.45201 | -93.35278 | 39673 ft | 428 kts | 268° |
| 2026-05-04 15:04 | 41.44896 | -93.41863 | 39672 ft | 428 kts | 268° |
| 2026-05-04 15:04 | 41.44524 | -93.49790 | 39668 ft | 428 kts | 268° |
| 2026-05-04 15:05 | 41.44147 | -93.57716 | 39667 ft | 428 kts | 268° |
| 2026-05-04 15:05 | 41.43794 | -93.65635 | 39665 ft | 427 kts | 271° |
| 2026-05-04 15:06 | 41.43815 | -93.73543 | 39671 ft | 427 kts | 272° |
| 2026-05-04 15:07 | 41.43917 | -93.85361 | 39663 ft | 427 kts | 272° |
| 2026-05-04 15:07 | 41.43966 | -93.93258 | 39666 ft | 427 kts | 272° |
| 2026-05-04 15:08 | 41.44003 | -94.01166 | 39672 ft | 427 kts | 272° |
| 2026-05-04 15:08 | 41.44032 | -94.09076 | 39669 ft | 427 kts | 272° |
| 2026-05-04 15:09 | 41.44056 | -94.16996 | 39671 ft | 427 kts | 272° |
| 2026-05-04 15:09 | 41.44074 | -94.24905 | 39665 ft | 427 kts | 271° |
| 2026-05-04 15:10 | 41.44092 | -94.36769 | 39677 ft | 426 kts | 271° |
| 2026-05-04 15:11 | 41.44097 | -94.48569 | 39678 ft | 426 kts | 271° |
| 2026-05-04 15:11 | 41.44094 | -94.56475 | 39676 ft | 426 kts | 271° |
| 2026-05-04 15:12 | 41.44086 | -94.64381 | 39674 ft | 426 kts | 271° |
| 2026-05-04 15:12 | 41.44072 | -94.72271 | 39677 ft | 426 kts | 271° |
| 2026-05-04 15:13 | 41.44053 | -94.80158 | 39682 ft | 425 kts | 271° |
| 2026-05-04 15:13 | 41.44028 | -94.88040 | 39686 ft | 425 kts | 271° |
| 2026-05-04 15:14 | 41.43998 | -94.95884 | 39670 ft | 425 kts | 271° |
| 2026-05-04 15:14 | 41.43963 | -95.03740 | 39678 ft | 424 kts | 271° |
| 2026-05-04 15:15 | 41.43923 | -95.11591 | 39686 ft | 423 kts | 271° |
| 2026-05-04 15:15 | 41.43877 | -95.19434 | 39685 ft | 423 kts | 271° |
| 2026-05-04 15:16 | 41.43798 | -95.31183 | 39682 ft | 423 kts | 271° |
| 2026-05-04 15:17 | 41.43708 | -95.42937 | 39698 ft | 423 kts | 270° |
| 2026-05-04 15:17 | 41.43605 | -95.54682 | 39691 ft | 423 kts | 270° |
| 2026-05-04 15:18 | 41.43530 | -95.62504 | 39690 ft | 422 kts | 270° |
| 2026-05-04 15:19 | 41.43409 | -95.74192 | 39687 ft | 422 kts | 270° |
| 2026-05-04 15:19 | 41.43275 | -95.85934 | 39698 ft | 422 kts | 270° |
| 2026-05-04 15:20 | 41.43178 | -95.93760 | 39694 ft | 422 kts | 270° |
| 2026-05-04 15:20 | 41.43077 | -96.01593 | 39693 ft | 422 kts | 270° |
| 2026-05-04 15:21 | 41.42970 | -96.09418 | 39673 ft | 422 kts | 270° |
| 2026-05-04 15:22 | 41.42800 | -96.21158 | 39691 ft | 422 kts | 270° |
| 2026-05-04 15:22 | 41.42619 | -96.32844 | 39709 ft | 422 kts | 270° |
| 2026-05-04 15:23 | 41.42491 | -96.40672 | 39711 ft | 422 kts | 270° |
| 2026-05-04 15:23 | 41.42358 | -96.48498 | 39705 ft | 422 kts | 270° |
| 2026-05-04 15:24 | 41.42077 | -96.64078 | 39702 ft | 422 kts | 270° |
| 2026-05-04 15:25 | 41.41928 | -96.71894 | 39702 ft | 422 kts | 270° |
| 2026-05-04 15:26 | 41.41695 | -96.83613 | 39706 ft | 422 kts | 270° |
| 2026-05-04 15:26 | 41.41450 | -96.95326 | 39714 ft | 421 kts | 270° |
| 2026-05-04 15:27 | 41.41193 | -97.07026 | 39724 ft | 421 kts | 270° |
| 2026-05-04 15:28 | 41.40925 | -97.18722 | 39730 ft | 421 kts | 270° |
| 2026-05-04 15:29 | 41.40645 | -97.30403 | 39733 ft | 421 kts | 270° |
| 2026-05-04 15:30 | 41.39947 | -97.57619 | 39726 ft | 421 kts | 269° |
| 2026-05-04 15:31 | 41.39628 | -97.69304 | 39722 ft | 420 kts | 269° |
| 2026-05-04 15:32 | 41.39070 | -97.88760 | 39720 ft | 420 kts | 269° |
| 2026-05-04 15:34 | 41.38482 | -98.08132 | 39719 ft | 419 kts | 269° |
| 2026-05-04 15:34 | 41.38114 | -98.19762 | 39718 ft | 419 kts | 269° |
| 2026-05-04 15:35 | 41.37707 | -98.31391 | 39719 ft | 419 kts | 266° |
| 2026-05-04 15:36 | 41.35844 | -98.42806 | 39722 ft | 423 kts | 256° |
| 2026-05-04 15:36 | 41.34013 | -98.50191 | 39724 ft | 422 kts | 255° |
| 2026-05-04 15:37 | 41.32161 | -98.57614 | 39723 ft | 422 kts | 255° |
| 2026-05-04 15:37 | 41.30324 | -98.65020 | 39726 ft | 421 kts | 255° |
| 2026-05-04 15:38 | 41.28493 | -98.72419 | 39717 ft | 421 kts | 255° |
| 2026-05-04 15:38 | 41.26664 | -98.79794 | 39727 ft | 420 kts | 255° |
| 2026-05-04 15:39 | 41.24828 | -98.87173 | 39727 ft | 420 kts | 255° |
| 2026-05-04 15:40 | 41.22083 | -98.98168 | 39723 ft | 419 kts | 255° |
| 2026-05-04 15:40 | 41.20241 | -99.05514 | 39707 ft | 419 kts | 255° |
| 2026-05-04 15:41 | 41.18395 | -99.12852 | 39728 ft | 418 kts | 255° |
| 2026-05-04 15:41 | 41.16550 | -99.20163 | 39731 ft | 418 kts | 255° |
| 2026-05-04 15:42 | 41.14696 | -99.27491 | 39723 ft | 418 kts | 255° |
| 2026-05-04 15:42 | 41.12844 | -99.34787 | 39734 ft | 418 kts | 255° |
| 2026-05-04 15:43 | 41.10984 | -99.42094 | 39724 ft | 418 kts | 255° |
| 2026-05-04 15:43 | 41.09132 | -99.49346 | 39718 ft | 417 kts | 255° |
| 2026-05-04 15:44 | 41.07267 | -99.56628 | 39732 ft | 417 kts | 255° |
| 2026-05-04 15:44 | 41.05393 | -99.63919 | 39746 ft | 417 kts | 255° |
| 2026-05-04 15:45 | 41.03520 | -99.71191 | 39752 ft | 417 kts | 255° |
| 2026-05-04 15:45 | 41.01641 | -99.78458 | 39754 ft | 417 kts | 255° |
| 2026-05-04 15:46 | 40.99758 | -99.85724 | 39742 ft | 417 kts | 255° |
| 2026-05-04 15:46 | 40.97872 | -99.92975 | 39757 ft | 416 kts | 255° |
| 2026-05-04 15:47 | 40.95983 | -100.00218 | 39753 ft | 416 kts | 255° |
| 2026-05-04 15:47 | 40.94102 | -100.07408 | 39747 ft | 416 kts | 255° |
| 2026-05-04 15:48 | 40.92205 | -100.14640 | 39744 ft | 416 kts | 255° |
| 2026-05-04 15:48 | 40.89350 | -100.25484 | 39731 ft | 416 kts | 255° |
| 2026-05-04 15:49 | 40.87446 | -100.32687 | 39730 ft | 414 kts | 255° |
| 2026-05-04 15:49 | 40.85544 | -100.39861 | 39742 ft | 413 kts | 255° |
| 2026-05-04 15:50 | 40.83643 | -100.47016 | 39748 ft | 412 kts | 255° |
| 2026-05-04 15:50 | 40.81739 | -100.54162 | 39747 ft | 412 kts | 255° |
| 2026-05-04 15:51 | 40.80157 | -100.60085 | 39751 ft | 411 kts | 255° |
| 2026-05-04 15:51 | 40.78359 | -100.67217 | 39750 ft | 408 kts | 259° |
| 2026-05-04 15:52 | 40.77128 | -100.74507 | 39752 ft | 406 kts | 261° |
| 2026-05-04 15:52 | 40.75910 | -100.81801 | 39743 ft | 407 kts | 261° |
| 2026-05-04 15:53 | 40.74677 | -100.89088 | 39741 ft | 407 kts | 261° |
| 2026-05-04 15:53 | 40.73442 | -100.96333 | 39742 ft | 408 kts | 261° |
| 2026-05-04 15:54 | 40.72194 | -101.03628 | 39742 ft | 408 kts | 261° |
| 2026-05-04 15:54 | 40.70939 | -101.10932 | 39745 ft | 408 kts | 261° |
| 2026-05-04 15:55 | 40.69672 | -101.18228 | 39743 ft | 409 kts | 260° |
| 2026-05-04 15:55 | 40.68391 | -101.25534 | 39751 ft | 409 kts | 260° |
| 2026-05-04 15:56 | 40.67116 | -101.32791 | 39756 ft | 409 kts | 260° |
| 2026-05-04 15:56 | 40.65829 | -101.40085 | 39776 ft | 408 kts | 260° |
| 2026-05-04 15:57 | 40.64543 | -101.47352 | 39792 ft | 408 kts | 260° |
| 2026-05-04 15:57 | 40.63250 | -101.54635 | 39802 ft | 407 kts | 260° |
| 2026-05-04 15:58 | 40.61957 | -101.61887 | 39808 ft | 407 kts | 260° |
| 2026-05-04 15:58 | 40.60657 | -101.69146 | 39793 ft | 407 kts | 260° |
| 2026-05-04 15:59 | 40.59357 | -101.76380 | 39794 ft | 406 kts | 260° |
| 2026-05-04 15:59 | 40.58055 | -101.83599 | 39788 ft | 405 kts | 260° |
| 2026-05-04 16:00 | 40.56758 | -101.90768 | 39776 ft | 405 kts | 260° |
| 2026-05-04 16:00 | 40.55449 | -101.97970 | 39759 ft | 405 kts | 260° |
| 2026-05-04 16:01 | 40.54122 | -102.05166 | 39726 ft | 405 kts | 259° |
| 2026-05-04 16:01 | 40.52785 | -102.12351 | 39733 ft | 404 kts | 259° |
| 2026-05-04 16:02 | 40.51444 | -102.19545 | 39637 ft | 406 kts | 259° |
| 2026-05-04 16:02 | 40.50096 | -102.26766 | 38655 ft | 406 kts | 259° |
| 2026-05-04 16:03 | 40.49423 | -102.30351 | 38093 ft | 402 kts | 259° |
| 2026-05-04 16:03 | 40.48755 | -102.33903 | 37499 ft | 397 kts | 259° |
| 2026-05-04 16:03 | 40.48096 | -102.37406 | 36974 ft | 393 kts | 259° |
| 2026-05-04 16:03 | 40.47442 | -102.40878 | 36441 ft | 389 kts | 259° |
| 2026-05-04 16:04 | 40.46794 | -102.44310 | 35948 ft | 385 kts | 259° |
| 2026-05-04 16:04 | 40.45512 | -102.51091 | 34932 ft | 380 kts | 259° |
| 2026-05-04 16:04 | 40.44875 | -102.54453 | 34415 ft | 379 kts | 259° |
| 2026-05-04 16:05 | 40.44240 | -102.57801 | 33890 ft | 377 kts | 259° |
| 2026-05-04 16:05 | 40.43614 | -102.61095 | 33345 ft | 375 kts | 259° |
| 2026-05-04 16:05 | 40.42354 | -102.67693 | 32302 ft | 370 kts | 258° |
| 2026-05-04 16:06 | 40.41718 | -102.71003 | 31807 ft | 368 kts | 258° |
| 2026-05-04 16:06 | 40.40062 | -102.79590 | 30525 ft | 362 kts | 258° |
| 2026-05-04 16:07 | 40.39246 | -102.83813 | 29939 ft | 359 kts | 257° |
| 2026-05-04 16:07 | 40.37416 | -102.93249 | 28469 ft | 352 kts | 257° |
| 2026-05-04 16:08 | 40.36812 | -102.96355 | 28003 ft | 350 kts | 257° |
| 2026-05-04 16:08 | 40.35017 | -103.05557 | 26647 ft | 344 kts | 257° |
| 2026-05-04 16:09 | 40.33831 | -103.11618 | 25786 ft | 341 kts | 257° |
| 2026-05-04 16:09 | 40.32658 | -103.17592 | 25028 ft | 339 kts | 257° |
| 2026-05-04 16:10 | 40.31480 | -103.23574 | 24205 ft | 338 kts | 256° |
| 2026-05-04 16:11 | 40.29713 | -103.32510 | 22873 ft | 337 kts | 256° |
| 2026-05-04 16:11 | 40.29125 | -103.35479 | 22432 ft | 336 kts | 257° |
| 2026-05-04 16:12 | 40.27369 | -103.44313 | 21168 ft | 332 kts | 257° |
| 2026-05-04 16:12 | 40.25629 | -103.53031 | 19953 ft | 328 kts | 257° |
| 2026-05-04 16:13 | 40.24475 | -103.58805 | 19178 ft | 327 kts | 257° |
| 2026-05-04 16:13 | 40.23339 | -103.64544 | 18400 ft | 327 kts | 257° |
| 2026-05-04 16:14 | 40.22195 | -103.70318 | 17586 ft | 327 kts | 257° |
| 2026-05-04 16:14 | 40.21062 | -103.76020 | 16877 ft | 322 kts | 257° |
| 2026-05-04 16:15 | 40.19371 | -103.84492 | 15701 ft | 320 kts | 257° |
| 2026-05-04 16:16 | 40.18284 | -103.90107 | 15024 ft | 311 kts | 263° |
| 2026-05-04 16:16 | 40.19217 | -103.98087 | 14206 ft | 294 kts | 283° |
| 2026-05-04 16:17 | 40.20068 | -104.03299 | 13645 ft | 293 kts | 283° |
| 2026-05-04 16:18 | 40.21316 | -104.11078 | 12719 ft | 287 kts | 283° |
| 2026-05-04 16:18 | 40.21722 | -104.13625 | 12425 ft | 283 kts | 283° |
| 2026-05-04 16:19 | 40.22914 | -104.21033 | 11642 ft | 272 kts | 283° |
| 2026-05-04 16:19 | 40.23684 | -104.25810 | 11123 ft | 265 kts | 283° |
| 2026-05-04 16:20 | 40.23202 | -104.32421 | 10641 ft | 248 kts | 233° |
| 2026-05-04 16:20 | 40.20898 | -104.35747 | 10379 ft | 248 kts | 229° |
| 2026-05-04 16:21 | 40.17374 | -104.40706 | 9968 ft | 248 kts | 229° |
| 2026-05-04 16:22 | 40.14738 | -104.43376 | 9920 ft | 245 kts | 199° |
| 2026-05-04 16:22 | 40.09689 | -104.45383 | 9923 ft | 252 kts | 200° |
| 2026-05-04 16:23 | 40.04676 | -104.47375 | 10000 ft | 252 kts | 199° |
| 2026-05-04 16:24 | 39.97920 | -104.50138 | 9841 ft | 253 kts | 200° |
| 2026-05-04 16:25 | 39.94626 | -104.51504 | 9726 ft | 247 kts | 200° |
| 2026-05-04 16:26 | 39.88009 | -104.53613 | 9541 ft | 252 kts | 177° |
| 2026-05-04 16:26 | 39.82710 | -104.53092 | 9368 ft | 253 kts | 179° |
| 2026-05-04 16:27 | 39.79216 | -104.52912 | 9243 ft | 249 kts | 181° |
| 2026-05-04 16:28 | 39.74146 | -104.52846 | 9197 ft | 246 kts | 182° |
| 2026-05-04 16:28 | 39.68894 | -104.52851 | 9174 ft | 251 kts | 182° |
| 2026-05-04 16:29 | 39.62013 | -104.52837 | 9112 ft | 248 kts | 182° |
| 2026-05-04 16:30 | 39.57301 | -104.54494 | 9073 ft | 239 kts | 245° |
| 2026-05-04 16:31 | 39.57576 | -104.58519 | 9113 ft | 235 kts | 298° |
| 2026-05-04 16:31 | 39.61111 | -104.62710 | 9027 ft | 235 kts | 328° |
| 2026-05-04 16:32 | 39.65789 | -104.64369 | 8601 ft | 242 kts | 357° |
| 2026-05-04 16:33 | 39.69035 | -104.64329 | 8016 ft | 228 kts | 358° |
| 2026-05-04 16:33 | 39.72094 | -104.64292 | 7479 ft | 213 kts | 357° |
| 2026-05-04 16:34 | 39.74940 | -104.64259 | 7026 ft | 192 kts | 357° |
| 2026-05-04 16:34 | 39.76244 | -104.64247 | 6799 ft | 181 kts | 357° |
| 2026-05-04 16:35 | 39.79644 | -104.64208 | 6170 ft | 156 kts | 355° |
| 2026-05-04 16:35 | 39.82944 | -104.64168 | 5502 ft | 156 kts | 355° |
| 2026-05-04 16:36 | 39.84014 | -104.64160 | 5391 ft | 144 kts | 355° |
| 2026-05-04 16:36 | 39.85432 | -104.64154 | 5370 ft | 54 kts | 357° |
| 2026-05-04 16:37 | 39.85667 | -104.64499 | 5370 ft | 26 kts | 270° |
| 2026-05-04 16:37 | 39.85667 | -104.64719 | 5368 ft | 24 kts | 270° |
| 2026-05-04 16:37 | 39.85670 | -104.65153 | 5375 ft | 24 kts | 270° |
| 2026-05-04 16:38 | 39.85673 | -104.65586 | 5388 ft | 24 kts | 271° |
| 2026-05-04 16:39 | 39.85676 | -104.66134 | 5389 ft | 17 kts | 270° |
| 2026-05-04 16:39 | 39.85677 | -104.66385 | 5387 ft | 14 kts | 270° |
| 2026-05-04 16:40 | 39.85669 | -104.66647 | 5389 ft | 11 kts | 292° |
| 2026-05-04 16:40 | 39.85731 | -104.66688 | 5388 ft | 0 kts | 355° |